Time;durP1;ratioP1;P1;durP2;ratioP2;P2;SDS_P1;SDS_P2;PMS_P1;PMS_P2;Temp;Humidity;BMP_temperature;BMP_pressure;BME280_temperature;BME280_humidity;BME280_pressure;Samples;Min_cycle;Max_cycle;Signal;HPM_P1;HPM_P2
2022/03/23 00:00:46;;;;;;;44.42;30.48;;;8.20;99.90;;;;;;5018514;28;20049;-74
2022/03/23 00:03:13;;;;;;;40.38;27.08;;;8.10;99.90;;;;;;5034217;28;20051;-74
2022/03/23 00:05:41;;;;;;;43.40;27.67;;;8.20;99.90;;;;;;5049524;28;20048;-74
2022/03/23 00:08:10;;;;;;;50.60;31.88;;;8.10;99.90;;;;;;5017558;28;20065;-74
2022/03/23 00:10:36;;;;;;;42.42;28.00;;;8.00;99.90;;;;;;5017198;28;20041;-74
2022/03/23 00:13:03;;;;;;;45.38;30.08;;;8.00;99.90;;;;;;5032586;28;20053;-74
2022/03/23 00:15:30;;;;;;;45.30;30.58;;;7.90;99.90;;;;;;5015230;28;20501;-74
2022/03/23 00:17:56;;;;;;;48.00;31.30;;;7.90;99.90;;;;;;5018284;28;20490;-74
2022/03/23 00:20:22;;;;;;;44.10;30.90;;;7.80;99.90;;;;;;5013441;28;20064;-73
2022/03/23 00:22:48;;;;;;;31.55;20.73;;;7.80;99.90;;;;;;5015106;28;20067;-74
2022/03/23 00:25:14;;;;;;;31.10;19.85;;;7.90;99.90;;;;;;5029974;28;20549;-74
2022/03/23 00:27:40;;;;;;;31.33;19.98;;;7.90;99.90;;;;;;5018038;28;20072;-74
2022/03/23 00:30:06;;;;;;;28.17;18.60;;;7.90;99.90;;;;;;5031624;28;20076;-74
2022/03/23 00:32:32;;;;;;;22.85;14.65;;;7.80;99.90;;;;;;5014762;28;20088;-74
2022/03/23 00:34:58;;;;;;;20.65;12.38;;;7.80;99.90;;;;;;5017917;28;20463;-74
2022/03/23 00:37:24;;;;;;;23.30;15.20;;;7.80;99.90;;;;;;5017063;28;20044;-74
2022/03/23 00:39:50;;;;;;;25.60;17.05;;;7.70;99.90;;;;;;5034351;28;20451;-74
2022/03/23 00:42:16;;;;;;;39.88;27.58;;;7.70;99.90;;;;;;5017075;28;20111;-74
2022/03/23 00:44:42;;;;;;;42.03;30.02;;;7.60;99.90;;;;;;5031227;28;20536;-74
2022/03/23 00:47:09;;;;;;;39.65;27.40;;;7.50;99.90;;;;;;5031242;28;20048;-73
2022/03/23 00:49:35;;;;;;;39.35;25.92;;;7.50;99.90;;;;;;5050044;28;20038;-74
2022/03/23 00:52:05;;;;;;;44.72;28.10;;;7.40;99.90;;;;;;5015606;28;20128;-74
2022/03/23 00:54:30;;;;;;;41.28;27.88;;;7.50;99.90;;;;;;5017843;28;20525;-73
2022/03/23 00:56:56;;;;;;;35.97;24.63;;;7.60;99.90;;;;;;5031611;28;20033;-74
2022/03/23 00:59:22;;;;;;;31.77;21.45;;;7.80;99.90;;;;;;5034055;28;20383;-74
2022/03/23 01:01:48;;;;;;;27.88;19.30;;;7.80;99.90;;;;;;5013285;28;20042;-73
2022/03/23 01:04:15;;;;;;;28.13;19.67;;;7.60;99.90;;;;;;5014023;28;20038;-73
2022/03/23 01:06:41;;;;;;;29.45;20.42;;;7.50;99.90;;;;;;5028723;28;20041;-74
2022/03/23 01:09:07;;;;;;;29.65;20.15;;;7.50;99.90;;;;;;5032706;28;20131;-73
2022/03/23 01:11:33;;;;;;;24.42;17.02;;;7.50;99.90;;;;;;5033691;28;20092;-74
2022/03/23 01:13:59;;;;;;;21.98;14.77;;;7.50;99.90;;;;;;5049340;28;20052;-73
2022/03/23 01:16:24;;;;;;;23.60;15.00;;;7.50;99.90;;;;;;5017098;28;20034;-74
2022/03/23 01:18:50;;;;;;;21.35;14.80;;;7.40;99.90;;;;;;5050235;28;20045;-74
2022/03/23 01:21:16;;;;;;;26.73;17.55;;;7.40;99.90;;;;;;5028866;28;20030;-74
2022/03/23 01:23:42;;;;;;;26.05;17.23;;;7.30;99.90;;;;;;5021299;28;20033;-74
2022/03/23 01:26:09;;;;;;;28.05;18.92;;;7.10;99.90;;;;;;5016946;28;20040;-74
2022/03/23 01:28:34;;;;;;;28.15;19.10;;;7.00;99.90;;;;;;5032025;28;20041;-74
2022/03/23 01:31:00;;;;;;;29.17;20.25;;;7.00;99.90;;;;;;5030880;28;20124;-74
2022/03/23 01:33:26;;;;;;;33.30;21.05;;;6.90;99.90;;;;;;5015765;28;20033;-73
2022/03/23 01:35:51;;;;;;;35.33;23.83;;;7.00;99.90;;;;;;5031308;28;20096;-73
2022/03/23 01:38:17;;;;;;;36.60;24.45;;;6.90;99.90;;;;;;5014337;28;20039;-73
2022/03/23 01:40:42;;;;;;;45.72;30.77;;;6.80;99.90;;;;;;5033177;28;20042;-73
2022/03/23 01:43:08;;;;;;;40.45;27.40;;;6.80;99.90;;;;;;5015826;28;20041;-73
2022/03/23 01:45:33;;;;;;;45.53;30.25;;;6.80;99.90;;;;;;5031927;28;20409;-74
2022/03/23 01:47:59;;;;;;;48.72;32.17;;;6.70;99.90;;;;;;5031842;28;20041;-74
2022/03/23 01:50:24;;;;;;;46.33;31.55;;;6.70;99.90;;;;;;5016740;28;20095;-74
2022/03/23 01:52:50;;;;;;;50.33;31.75;;;6.70;99.90;;;;;;5032186;28;20083;-73
2022/03/23 01:55:17;;;;;;;49.47;34.65;;;6.70;99.90;;;;;;5032862;28;20080;-73
2022/03/23 01:57:49;;;;;;;45.90;31.02;;;6.60;99.90;;;;;;5032836;28;20394;-74
2022/03/23 02:00:16;;;;;;;49.17;33.80;;;6.60;99.90;;;;;;5049441;28;20116;-73
2022/03/23 02:02:43;;;;;;;47.03;32.47;;;6.50;99.90;;;;;;5048162;28;20045;-73
2022/03/23 02:05:09;;;;;;;48.35;32.25;;;6.50;99.90;;;;;;5049316;28;20045;-73
2022/03/23 02:07:35;;;;;;;54.00;36.22;;;6.50;99.90;;;;;;5014470;28;20044;-74
2022/03/23 02:10:01;;;;;;;52.85;36.95;;;6.40;99.90;;;;;;5032604;28;20405;-73
2022/03/23 02:12:30;;;;;;;49.42;33.75;;;6.30;99.90;;;;;;5031502;28;20044;-73
2022/03/23 02:14:56;;;;;;;48.78;32.35;;;6.20;99.90;;;;;;5032556;28;20034;-73
2022/03/23 02:17:22;;;;;;;50.58;34.80;;;6.30;99.90;;;;;;5015065;28;20046;-73
2022/03/23 02:19:47;;;;;;;51.53;33.13;;;6.30;99.90;;;;;;5017960;28;20052;-74
2022/03/23 02:22:13;;;;;;;53.83;34.08;;;6.30;99.90;;;;;;5032372;28;20041;-74
2022/03/23 02:24:39;;;;;;;51.50;33.05;;;6.30;99.90;;;;;;5015452;28;20053;-74
2022/03/23 02:27:04;;;;;;;49.50;32.83;;;6.40;99.90;;;;;;5014721;28;20037;-74
2022/03/23 02:29:34;;;;;;;49.85;32.78;;;6.40;99.90;;;;;;5014997;28;20084;-74
2022/03/23 02:32:04;;;;;;;47.20;32.47;;;6.30;99.90;;;;;;5015240;28;20072;-74
2022/03/23 02:34:31;;;;;;;51.88;34.40;;;6.30;99.90;;;;;;5047685;28;20528;-74
2022/03/23 02:36:58;;;;;;;49.22;33.30;;;6.20;99.90;;;;;;5014894;28;20037;-74
2022/03/23 02:39:25;;;;;;;50.78;33.60;;;6.20;99.90;;;;;;5013995;28;20073;-74
2022/03/23 02:41:53;;;;;;;48.05;31.40;;;6.20;99.90;;;;;;5032144;28;20034;-74
2022/03/23 02:44:19;;;;;;;45.20;30.40;;;6.30;99.90;;;;;;5014717;28;20053;-73
2022/03/23 02:46:45;;;;;;;44.03;29.08;;;6.30;99.90;;;;;;5048551;28;20041;-74
2022/03/23 02:49:11;;;;;;;43.25;28.45;;;6.20;99.90;;;;;;5031283;28;20045;-73
2022/03/23 02:51:37;;;;;;;37.47;26.55;;;6.30;99.90;;;;;;5011482;28;20486;-74
2022/03/23 03:02:30;;;;;;;46.97;31.48;;;6.20;99.90;;;;;;5047453;28;20503;-73
2022/03/23 03:04:56;;;;;;;49.08;31.73;;;6.20;99.90;;;;;;5031983;28;20080;-74
2022/03/23 03:07:22;;;;;;;46.47;30.15;;;6.20;99.90;;;;;;5028536;28;20073;-74
2022/03/23 03:09:47;;;;;;;37.53;25.88;;;6.20;99.90;;;;;;5032125;28;20512;-74
2022/03/23 03:12:13;;;;;;;37.60;25.08;;;6.20;99.90;;;;;;5014741;28;20034;-73
2022/03/23 03:14:39;;;;;;;38.25;25.20;;;6.20;99.90;;;;;;5015793;28;20063;-74
2022/03/23 03:17:05;;;;;;;42.42;27.67;;;6.20;99.90;;;;;;5034315;28;20504;-74
2022/03/23 03:19:32;;;;;;;46.35;31.63;;;6.20;99.90;;;;;;5052527;28;20034;-73
2022/03/23 03:21:57;;;;;;;47.17;30.67;;;6.20;99.90;;;;;;5050496;28;20045;-74
2022/03/23 03:24:23;;;;;;;46.45;32.17;;;6.10;99.90;;;;;;5019522;28;20481;-73
2022/03/23 03:26:50;;;;;;;46.67;29.90;;;6.00;99.90;;;;;;5034659;28;20041;-74
2022/03/23 03:29:16;;;;;;;35.97;24.40;;;5.90;99.90;;;;;;5019118;28;20073;-74
2022/03/23 03:31:42;;;;;;;26.75;17.83;;;6.00;99.90;;;;;;5034378;28;20048;-74
2022/03/23 03:34:08;;;;;;;27.60;20.08;;;6.00;99.90;;;;;;5035831;28;20474;-73
2022/03/23 03:36:34;;;;;;;30.95;21.88;;;6.00;99.90;;;;;;5018352;28;20071;-74
2022/03/23 03:39:00;;;;;;;31.35;21.60;;;6.00;99.90;;;;;;5017568;28;20117;-74
2022/03/23 03:41:26;;;;;;;34.10;22.45;;;6.00;99.90;;;;;;5027046;28;20050;-73
2022/03/23 03:43:52;;;;;;;32.17;22.13;;;6.00;99.90;;;;;;5034551;28;20041;-73
2022/03/23 03:46:17;;;;;;;35.95;23.48;;;6.00;99.90;;;;;;5017159;28;20081;-74
2022/03/23 03:48:43;;;;;;;38.90;26.33;;;5.90;99.90;;;;;;5035211;28;20073;-73
2022/03/23 03:51:09;;;;;;;41.45;28.35;;;5.90;99.90;;;;;;5014758;28;20034;-73
2022/03/23 03:53:35;;;;;;;29.38;19.13;;;5.90;99.90;;;;;;5015403;28;20045;-74
2022/03/23 03:56:01;;;;;;;23.17;16.65;;;5.90;99.90;;;;;;5029486;28;20069;-73
2022/03/23 03:58:27;;;;;;;34.38;22.95;;;5.90;99.90;;;;;;5051677;28;20040;-74
2022/03/23 04:00:54;;;;;;;45.35;29.90;;;5.90;99.90;;;;;;5017997;28;20033;-74
2022/03/23 04:03:19;;;;;;;45.17;30.50;;;5.80;99.90;;;;;;5019669;28;20494;-74
2022/03/23 04:05:45;;;;;;;47.20;31.38;;;5.80;99.90;;;;;;5016475;28;20045;-73
2022/03/23 04:08:11;;;;;;;46.92;29.27;;;5.80;99.90;;;;;;5018587;28;20072;-74
2022/03/23 04:10:37;;;;;;;44.53;29.98;;;5.80;99.90;;;;;;5031318;28;20116;-74
2022/03/23 04:13:07;;;;;;;45.15;30.02;;;5.80;99.90;;;;;;5028529;28;20045;-74
2022/03/23 04:15:33;;;;;;;41.92;28.25;;;5.70;99.90;;;;;;5031813;28;20406;-73
2022/03/23 04:17:59;;;;;;;41.08;27.60;;;5.70;99.90;;;;;;5033810;28;20099;-73
2022/03/23 04:20:25;;;;;;;39.67;28.27;;;5.70;99.90;;;;;;5022125;28;20069;-73
2022/03/23 04:22:51;;;;;;;41.10;29.05;;;5.70;99.90;;;;;;5004525;28;20060;-73
2022/03/23 04:25:17;;;;;;;35.05;22.90;;;5.50;99.90;;;;;;5031803;28;20414;-73
2022/03/23 04:27:53;;;;;;;28.20;19.42;;;5.30;99.90;;;;;;5034438;28;20041;-73
2022/03/23 04:30:21;;;;;;;28.83;19.67;;;5.30;99.90;;;;;;5033759;28;20111;-73
2022/03/23 04:32:51;;;;;;;31.23;20.48;;;5.20;99.90;;;;;;5032264;28;20115;-74
2022/03/23 04:35:18;;;;;;;24.73;16.70;;;5.20;99.90;;;;;;5034775;28;20445;-73
2022/03/23 04:37:44;;;;;;;25.98;16.40;;;5.40;99.90;;;;;;5017147;28;20486;-73
2022/03/23 04:40:12;;;;;;;35.92;23.25;;;5.40;99.90;;;;;;5032358;28;20091;-74
2022/03/23 04:42:38;;;;;;;32.70;22.42;;;5.30;99.90;;;;;;5033406;28;20125;-73
2022/03/23 04:45:06;;;;;;;27.80;18.38;;;5.20;99.90;;;;;;5033004;28;20132;-73
2022/03/23 04:47:33;;;;;;;32.17;21.13;;;5.10;99.90;;;;;;5034211;28;20046;-73
2022/03/23 04:49:59;;;;;;;36.90;25.65;;;5.10;99.90;;;;;;5033140;28;20048;-73
2022/03/23 04:52:25;;;;;;;39.20;27.20;;;5.10;99.90;;;;;;5034130;28;20049;-73
2022/03/23 04:54:56;;;;;;;38.25;26.08;;;5.10;99.90;;;;;;5031628;28;20486;-73
2022/03/23 04:57:23;;;;;;;35.40;25.13;;;5.00;99.90;;;;;;5034164;28;20068;-73
2022/03/23 04:59:49;;;;;;;35.10;24.08;;;4.90;99.90;;;;;;5032784;28;20045;-74
2022/03/23 05:02:14;;;;;;;40.63;26.88;;;4.90;99.90;;;;;;5034218;28;20041;-73
2022/03/23 05:04:40;;;;;;;39.45;26.42;;;4.80;99.90;;;;;;5031363;28;20045;-73
2022/03/23 05:07:05;;;;;;;39.97;27.55;;;4.90;99.90;;;;;;5032933;28;20417;-73
2022/03/23 05:09:31;;;;;;;47.28;31.17;;;4.90;99.90;;;;;;5032689;28;20033;-73
2022/03/23 05:11:56;;;;;;;49.83;33.78;;;4.90;99.90;;;;;;5031697;28;20473;-73
2022/03/23 05:14:22;;;;;;;52.63;32.55;;;4.80;99.90;;;;;;5015783;28;20045;-73
2022/03/23 05:16:47;;;;;;;46.75;32.65;;;4.80;99.90;;;;;;5033714;28;20379;-73
2022/03/23 05:19:13;;;;;;;51.53;34.33;;;4.70;99.90;;;;;;5032509;28;20442;-73
2022/03/23 05:21:38;;;;;;;45.13;30.67;;;4.60;99.90;;;;;;5033596;28;20430;-73
2022/03/23 05:24:04;;;;;;;44.28;29.58;;;4.70;99.90;;;;;;5033847;28;20593;-73
2022/03/23 05:26:30;;;;;;;41.10;28.30;;;4.70;99.90;;;;;;5031266;28;20100;-73
2022/03/23 05:28:55;;;;;;;44.17;30.23;;;4.80;99.90;;;;;;5016787;28;20486;-73
2022/03/23 05:31:21;;;;;;;40.75;27.58;;;4.90;99.90;;;;;;5032054;28;20490;-73
2022/03/23 05:33:47;;;;;;;40.22;26.00;;;4.90;99.90;;;;;;5033343;28;20044;-73
2022/03/23 05:36:14;;;;;;;33.95;23.20;;;4.90;99.90;;;;;;5032308;28;20047;-73
2022/03/23 05:38:39;;;;;;;36.65;23.38;;;4.90;99.90;;;;;;5031931;28;20110;-73
2022/03/23 05:41:05;;;;;;;40.65;26.98;;;4.90;99.90;;;;;;5033052;28;20513;-73
2022/03/23 05:43:30;;;;;;;40.20;26.63;;;4.90;99.90;;;;;;5014977;28;20064;-73
2022/03/23 05:45:56;;;;;;;37.67;25.80;;;4.80;99.90;;;;;;5032101;28;20057;-73
2022/03/23 05:48:22;;;;;;;39.35;24.77;;;4.90;99.90;;;;;;5033103;28;20049;-73
2022/03/23 05:50:47;;;;;;;36.00;24.20;;;4.80;99.90;;;;;;5025555;28;20038;-73
2022/03/23 05:53:13;;;;;;;37.10;24.40;;;4.90;99.90;;;;;;5022335;28;20033;-73
2022/03/23 05:55:38;;;;;;;38.28;26.13;;;4.80;99.90;;;;;;5031167;28;20076;-73
2022/03/23 05:58:05;;;;;;;30.30;19.95;;;4.90;99.90;;;;;;5031582;28;20033;-73
2022/03/23 06:00:31;;;;;;;25.90;17.92;;;4.90;99.90;;;;;;5014774;28;20402;-73
2022/03/23 06:02:57;;;;;;;24.45;15.93;;;5.00;99.90;;;;;;5030374;28;20041;-74
2022/03/23 06:05:22;;;;;;;24.38;15.98;;;5.00;99.90;;;;;;5030496;28;20052;-73
2022/03/23 06:07:48;;;;;;;27.00;17.08;;;5.00;99.90;;;;;;5032607;28;20037;-73
2022/03/23 06:10:13;;;;;;;28.75;18.00;;;5.10;99.90;;;;;;5014245;28;20116;-73
2022/03/23 06:12:39;;;;;;;24.90;17.33;;;5.00;99.90;;;;;;5032516;28;20034;-73
2022/03/23 06:15:06;;;;;;;25.55;17.35;;;5.10;99.90;;;;;;5015612;28;20406;-73
2022/03/23 06:17:31;;;;;;;17.92;13.20;;;5.10;99.90;;;;;;5032565;28;20048;-73
2022/03/23 06:19:57;;;;;;;19.70;13.40;;;5.10;99.90;;;;;;5031562;28;20461;-73
2022/03/23 06:22:22;;;;;;;20.70;13.35;;;5.10;99.90;;;;;;5015060;28;20037;-74
2022/03/23 06:24:48;;;;;;;20.85;12.60;;;5.10;99.90;;;;;;5030446;28;20041;-74
2022/03/23 06:27:14;;;;;;;20.00;13.60;;;5.10;99.90;;;;;;5032320;28;20128;-73
2022/03/23 06:29:39;;;;;;;19.30;13.63;;;5.10;99.90;;;;;;5031081;28;20045;-73
2022/03/23 06:32:05;;;;;;;18.25;13.15;;;5.10;99.90;;;;;;5032209;28;20037;-73
2022/03/23 06:34:31;;;;;;;24.50;17.35;;;5.20;99.90;;;;;;5030122;28;20044;-74
2022/03/23 06:36:57;;;;;;;27.58;18.73;;;5.20;99.90;;;;;;5010201;28;20037;-73
2022/03/23 06:39:22;;;;;;;26.75;18.65;;;5.10;99.90;;;;;;5031955;28;20175;-73
2022/03/23 06:41:48;;;;;;;25.38;17.60;;;5.10;99.90;;;;;;5029147;28;20407;-73
2022/03/23 06:44:16;;;;;;;29.95;20.38;;;5.10;99.90;;;;;;5026977;28;20538;-73
2022/03/23 06:46:41;;;;;;;34.72;23.70;;;5.10;99.90;;;;;;5030831;28;20040;-73
2022/03/23 06:49:07;;;;;;;37.05;26.33;;;5.10;99.90;;;;;;5014657;28;20025;-73
2022/03/23 06:51:32;;;;;;;43.97;28.42;;;5.10;99.90;;;;;;5030968;28;20117;-74
2022/03/23 06:53:58;;;;;;;41.30;27.77;;;5.10;99.90;;;;;;5030856;28;20492;-73
2022/03/23 06:56:24;;;;;;;47.15;31.08;;;5.10;99.90;;;;;;5029235;28;20041;-73
2022/03/23 06:58:49;;;;;;;40.38;28.10;;;5.10;99.90;;;;;;5031927;28;20045;-73
2022/03/23 07:01:15;;;;;;;37.70;27.70;;;5.20;99.90;;;;;;5027985;28;20088;-74
2022/03/23 07:03:40;;;;;;;36.88;27.27;;;5.20;99.90;;;;;;5013253;28;20037;-73
2022/03/23 07:06:06;;;;;;;35.97;24.77;;;5.30;99.90;;;;;;5008381;28;20041;-73
2022/03/23 07:11:15;;;;;;;41.92;27.55;;;5.70;99.90;;;;;;5029579;28;20401;-73
2022/03/23 07:13:41;;;;;;;38.42;27.60;;;5.80;99.90;;;;;;5028239;28;20129;-74
2022/03/23 07:16:07;;;;;;;41.17;28.25;;;5.90;99.90;;;;;;5029503;28;20037;-74
2022/03/23 07:18:32;;;;;;;41.83;28.75;;;5.90;99.90;;;;;;5013320;28;20037;-74
2022/03/23 07:20:58;;;;;;;41.65;29.10;;;6.00;99.90;;;;;;5014145;28;20037;-74
2022/03/23 07:23:23;;;;;;;47.20;31.20;;;6.00;99.90;;;;;;5014849;28;20553;-74
2022/03/23 07:25:49;;;;;;;45.17;31.27;;;6.10;99.90;;;;;;5030480;28;20398;-73
2022/03/23 07:28:14;;;;;;;44.70;30.30;;;6.10;99.90;;;;;;5030084;28;20083;-74
2022/03/23 07:30:40;;;;;;;57.42;38.58;;;6.30;99.90;;;;;;5028580;28;20048;-74
2022/03/23 07:33:08;;;;;;;54.50;37.38;;;6.40;99.90;;;;;;5015615;28;20124;-74
2022/03/23 07:35:33;;;;;;;55.42;39.15;;;6.50;99.90;;;;;;5024938;28;20041;-74
2022/03/23 07:37:59;;;;;;;63.60;43.17;;;6.60;99.90;;;;;;5009913;28;20045;-74
2022/03/23 07:40:24;;;;;;;63.80;42.17;;;6.80;99.90;;;;;;5031130;28;20077;-74
2022/03/23 07:42:50;;;;;;;59.80;40.15;;;6.90;99.90;;;;;;5014646;28;20045;-74
2022/03/23 07:45:16;;;;;;;58.63;40.85;;;7.00;99.90;;;;;;5010672;28;20458;-74
2022/03/23 07:47:41;;;;;;;57.45;39.47;;;7.20;99.90;;;;;;5036000;28;20128;-74
2022/03/23 07:50:08;;;;;;;51.92;35.47;;;7.30;99.90;;;;;;5031432;28;20068;-73
2022/03/23 07:52:34;;;;;;;59.30;38.65;;;7.50;99.90;;;;;;5029779;28;20549;-75
2022/03/23 07:55:00;;;;;;;54.72;38.67;;;7.70;99.90;;;;;;5014831;28;20038;-75
2022/03/23 07:57:26;;;;;;;52.88;37.47;;;7.90;99.90;;;;;;5030117;28;20072;-75
2022/03/23 07:59:55;;;;;;;53.58;38.15;;;8.00;99.90;;;;;;5048269;28;20041;-75
2022/03/23 08:02:26;;;;;;;54.72;36.83;;;8.20;99.90;;;;;;5029985;28;20069;-75
2022/03/23 08:04:52;;;;;;;51.00;35.60;;;8.30;99.90;;;;;;5029926;28;20076;-75
2022/03/23 08:07:17;;;;;;;51.78;37.20;;;8.50;99.90;;;;;;5031464;28;20037;-75
2022/03/23 08:09:43;;;;;;;51.08;36.85;;;8.60;99.90;;;;;;5023670;28;20033;-75
2022/03/23 08:12:09;;;;;;;48.58;34.60;;;8.80;99.90;;;;;;5017124;28;20476;-75
2022/03/23 08:14:35;;;;;;;45.03;32.45;;;8.90;99.90;;;;;;5032563;28;20037;-75
2022/03/23 08:17:00;;;;;;;44.72;31.15;;;9.10;99.90;;;;;;5018376;28;20049;-75
2022/03/23 08:19:26;;;;;;;42.58;30.30;;;9.20;99.90;;;;;;5016198;28;20406;-75
2022/03/23 08:21:52;;;;;;;37.92;28.42;;;9.50;99.90;;;;;;4998081;28;20041;-75
2022/03/23 08:24:18;;;;;;;38.97;28.77;;;9.80;99.90;;;;;;5006696;28;20064;-75
2022/03/23 08:26:45;;;;;;;41.80;31.15;;;9.90;99.90;;;;;;5032787;28;20033;-75
2022/03/23 08:29:10;;;;;;;44.72;30.23;;;10.00;99.90;;;;;;5014626;28;20399;-76
2022/03/23 08:31:37;;;;;;;35.20;27.05;;;10.20;99.90;;;;;;5019893;28;20038;-78
2022/03/23 08:34:04;;;;;;;40.33;29.58;;;10.30;99.90;;;;;;5019798;28;20041;-78
2022/03/23 08:36:30;;;;;;;38.35;27.27;;;10.40;99.90;;;;;;5032799;28;20120;-78
2022/03/23 08:38:55;;;;;;;31.55;23.17;;;10.50;99.90;;;;;;5014042;28;20502;-78
2022/03/23 08:41:22;;;;;;;30.45;20.98;;;10.80;99.90;;;;;;5013999;28;20520;-78
2022/03/23 08:43:48;;;;;;;30.85;21.27;;;11.00;98.80;;;;;;5031832;28;20041;-77
2022/03/23 08:46:14;;;;;;;26.05;19.65;;;11.20;96.20;;;;;;5049316;28;20075;-77
2022/03/23 08:48:40;;;;;;;28.05;20.60;;;11.40;92.40;;;;;;5017728;28;20048;-78
2022/03/23 08:51:06;;;;;;;28.13;19.83;;;11.50;92.20;;;;;;5014922;28;20152;-77
2022/03/23 08:53:32;;;;;;;29.27;20.08;;;11.80;82.70;;;;;;5030837;28;20144;-76
2022/03/23 08:55:59;;;;;;;28.80;20.90;;;11.90;85.10;;;;;;5030586;28;20042;-78
2022/03/23 08:58:24;;;;;;;29.85;20.58;;;12.10;83.40;;;;;;5014573;28;20442;-78
2022/03/23 09:00:50;;;;;;;27.38;19.42;;;12.30;82.50;;;;;;5007912;28;20037;-75
2022/03/23 09:03:16;;;;;;;28.92;19.95;;;12.50;84.30;;;;;;5032712;28;20148;-74
2022/03/23 09:05:41;;;;;;;27.55;20.58;;;12.60;82.40;;;;;;5011579;28;20083;-74
2022/03/23 09:08:10;;;;;;;27.10;20.60;;;12.80;79.30;;;;;;5032115;28;20140;-73
2022/03/23 09:10:36;;;;;;;28.65;19.52;;;12.90;75.60;;;;;;5012967;28;20044;-74
2022/03/23 09:13:03;;;;;;;29.85;19.02;;;13.10;79.80;;;;;;5013069;28;20042;-73
2022/03/23 09:15:30;;;;;;;27.05;18.77;;;13.30;74.40;;;;;;5019764;28;20037;-74
2022/03/23 09:18:00;;;;;;;27.13;19.48;;;13.40;66.80;;;;;;5033671;28;20116;-73
2022/03/23 09:20:28;;;;;;;25.90;18.67;;;13.50;70.80;;;;;;5031733;28;20116;-74
2022/03/23 09:22:54;;;;;;;26.80;18.08;;;13.50;71.40;;;;;;5013230;28;20824;-73
2022/03/23 09:25:22;;;;;;;25.40;17.63;;;13.60;68.10;;;;;;5018418;28;20124;-73
2022/03/23 09:27:48;;;;;;;21.92;16.73;;;13.80;67.00;;;;;;5017948;28;20100;-73
2022/03/23 09:30:14;;;;;;;26.45;17.73;;;13.90;63.70;;;;;;5013565;28;20141;-77
2022/03/23 09:32:41;;;;;;;25.42;17.60;;;14.00;65.30;;;;;;5012668;28;20113;-77
2022/03/23 09:35:07;;;;;;;25.33;18.05;;;14.00;64.10;;;;;;5027579;28;20136;-75
2022/03/23 09:37:47;;;;;;;24.90;16.65;;;14.20;60.20;;;;;;5033136;28;20045;-74
2022/03/23 09:40:25;;;;;;;22.17;16.25;;;14.40;58.40;;;;;;5033328;28;20038;-74
2022/03/23 09:42:53;;;;;;;22.48;16.88;;;14.60;55.40;;;;;;5033070;28;20095;-74
2022/03/23 09:47:53;;;;;;;23.60;16.70;;;14.60;58.50;;;;;;5033406;28;20099;-74
2022/03/23 09:50:19;;;;;;;25.17;16.35;;;14.70;57.10;;;;;;5033063;28;20041;-74
2022/03/23 09:52:45;;;;;;;21.55;17.02;;;14.80;55.80;;;;;;5032861;28;20192;-74
2022/03/23 09:55:11;;;;;;;21.48;17.15;;;14.90;57.20;;;;;;5033000;28;20045;-74
2022/03/23 09:57:37;;;;;;;21.67;16.75;;;14.90;58.10;;;;;;5032859;28;20033;-74
2022/03/23 10:00:05;;;;;;;22.50;17.65;;;15.00;57.80;;;;;;5032921;28;20033;-74
2022/03/23 10:02:55;;;;;;;22.33;18.30;;;15.00;59.70;;;;;;5033058;28;20371;-74
2022/03/23 10:05:24;;;;;;;22.13;17.17;;;15.10;57.40;;;;;;5032795;28;20524;-74
2022/03/23 10:08:01;;;;;;;22.75;16.33;;;15.10;56.00;;;;;;5016216;28;20044;-74
2022/03/23 10:10:48;;;;;;;22.70;14.73;;;15.20;51.70;;;;;;5049324;28;20494;-74
2022/03/23 10:13:54;;;;;;;23.70;16.42;;;15.30;57.40;;;;;;5032595;28;20124;-73
2022/03/23 10:16:41;;;;;;;21.00;15.73;;;15.50;54.10;;;;;;5032431;28;20053;-74
2022/03/23 10:19:07;;;;;;;19.25;15.75;;;15.40;51.00;;;;;;5032571;28;20042;-73
2022/03/23 10:21:36;;;;;;;21.48;16.08;;;15.50;48.40;;;;;;5032713;28;20163;-74
2022/03/23 10:24:02;;;;;;;17.42;14.50;;;15.50;54.50;;;;;;5032704;28;20429;-74
2022/03/23 10:26:30;;;;;;;21.55;15.48;;;15.60;49.00;;;;;;5015947;28;20045;-73
2022/03/23 10:28:57;;;;;;;17.65;13.98;;;15.70;50.60;;;;;;5032600;28;20444;-74
2022/03/23 10:31:24;;;;;;;17.30;13.80;;;15.80;53.30;;;;;;5032410;28;20128;-74
2022/03/23 10:34:19;;;;;;;20.85;15.40;;;16.00;50.90;;;;;;5032228;28;20045;-73
2022/03/23 10:36:45;;;;;;;19.50;14.13;;;15.90;51.00;;;;;;5023655;28;20077;-74
2022/03/23 10:39:12;;;;;;;17.95;13.13;;;16.00;51.80;;;;;;5032215;28;20077;-74
2022/03/23 10:41:38;;;;;;;18.27;13.20;;;16.10;49.80;;;;;;5032236;28;20103;-74
2022/03/23 10:44:15;;;;;;;20.10;14.77;;;16.20;50.00;;;;;;5031956;28;20507;-74
2022/03/23 10:46:41;;;;;;;19.13;14.48;;;16.30;49.20;;;;;;5032192;28;20053;-73
2022/03/23 10:49:07;;;;;;;20.67;14.57;;;16.30;49.10;;;;;;5015699;28;20042;-74
2022/03/23 10:51:35;;;;;;;19.73;13.82;;;16.40;47.90;;;;;;5032364;28;20045;-74
2022/03/23 10:54:17;;;;;;;19.38;14.10;;;16.40;50.60;;;;;;5031864;28;20045;-74
2022/03/23 10:56:43;;;;;;;;;;;16.40;51.20;;;;;;5032468;28;20037;-74
2022/03/23 10:59:26;;;;;;;17.48;12.82;;;16.40;46.80;;;;;;5032269;28;20433;-74
2022/03/23 11:02:03;;;;;;;20.17;13.27;;;16.40;47.60;;;;;;5032189;28;20474;-74
2022/03/23 11:04:51;;;;;;;19.05;13.68;;;16.50;48.40;;;;;;5032227;28;20409;-74
2022/03/23 11:07:31;;;;;;;21.30;13.30;;;16.50;47.80;;;;;;5032236;28;20037;-74
2022/03/23 11:15:46;;;;;;;18.30;13.38;;;16.70;48.90;;;;;;5031869;28;20049;-74
2022/03/23 11:18:17;;;;;;;21.83;13.82;;;16.70;50.80;;;;;;5015413;28;20069;-74
2022/03/23 11:20:51;;;;;;;20.35;12.07;;;16.80;47.60;;;;;;5032050;28;20429;-74
2022/03/23 11:23:23;;;;;;;19.50;13.13;;;16.80;47.30;;;;;;5031985;28;20504;-74
2022/03/23 11:25:53;;;;;;;18.08;12.88;;;16.80;43.80;;;;;;5031852;28;20498;-74
2022/03/23 11:28:23;;;;;;;21.95;13.55;;;16.70;41.50;;;;;;5048352;28;20044;-74
2022/03/23 11:30:50;;;;;;;18.98;11.60;;;16.80;44.90;;;;;;5031708;28;20049;-74
2022/03/23 11:33:21;;;;;;;20.80;11.77;;;16.90;48.40;;;;;;5031589;28;20041;-74
2022/03/23 11:35:49;;;;;;;22.33;12.30;;;16.90;46.40;;;;;;5033951;28;20511;-74
2022/03/23 11:38:23;;;;;;;18.92;11.73;;;16.90;48.70;;;;;;5035593;28;20486;-74
2022/03/23 11:40:50;;;;;;;18.05;11.48;;;17.00;49.60;;;;;;5035575;28;20038;-74
2022/03/23 11:43:18;;;;;;;17.92;10.77;;;17.00;49.20;;;;;;5035680;28;20410;-74
2022/03/23 11:45:45;;;;;;;21.02;9.95;;;17.10;47.70;;;;;;5051889;28;20132;-74
2022/03/23 11:48:19;;;;;;;20.05;10.43;;;17.00;48.60;;;;;;5035340;28;20045;-74
2022/03/23 11:51:15;;;;;;;18.35;10.77;;;16.90;43.80;;;;;;5035661;28;20123;-74
2022/03/23 11:54:14;;;;;;;26.55;11.75;;;17.10;47.40;;;;;;5035210;28;20110;-74
2022/03/23 11:56:46;;;;;;;20.35;10.48;;;17.00;46.70;;;;;;5051876;28;20041;-74
2022/03/23 11:59:22;;;;;;;20.92;10.65;;;17.00;47.60;;;;;;5035269;28;20119;-74
2022/03/23 12:01:50;;;;;;;17.88;10.43;;;17.10;47.50;;;;;;5018671;28;20040;-74
2022/03/23 12:04:18;;;;;;;18.48;9.75;;;17.10;45.00;;;;;;5035020;28;20057;-74
2022/03/23 12:06:45;;;;;;;20.38;11.32;;;17.20;48.80;;;;;;5018495;28;20172;-74
2022/03/23 12:09:44;;;;;;;18.90;12.00;;;17.30;46.50;;;;;;5035022;28;20039;-74
2022/03/23 12:12:11;;;;;;;20.27;12.15;;;17.30;47.10;;;;;;5013670;28;20104;-74
2022/03/23 12:14:39;;;;;;;23.10;10.38;;;17.30;45.70;;;;;;5018393;28;20040;-74
2022/03/23 12:17:09;;;;;;;14.77;8.90;;;17.30;43.40;;;;;;5035096;28;20508;-74
2022/03/23 12:19:57;;;;;;;17.27;9.38;;;17.30;46.90;;;;;;5034857;28;20045;-74
2022/03/23 12:22:31;;;;;;;20.25;9.60;;;17.40;46.40;;;;;;5018369;28;20088;-74
2022/03/23 12:25:09;;;;;;;18.83;9.05;;;17.40;47.90;;;;;;5034742;28;20048;-74
2022/03/23 12:28:09;;;;;;;21.15;10.13;;;17.40;47.00;;;;;;5034668;28;20045;-74
2022/03/23 12:30:41;;;;;;;24.77;10.73;;;17.30;42.90;;;;;;5034678;28;20041;-74
2022/03/23 12:33:12;;;;;;;16.05;8.85;;;17.40;43.00;;;;;;5034452;28;20050;-74
2022/03/23 12:35:39;;;;;;;20.52;9.00;;;17.40;46.60;;;;;;5034556;28;20045;-74
2022/03/23 12:38:21;;;;;;;16.27;9.23;;;17.50;44.40;;;;;;5034683;28;20041;-74
2022/03/23 12:40:48;;;;;;;17.27;8.52;;;17.40;45.30;;;;;;5034507;28;20084;-74
2022/03/23 12:43:37;;;;;;;14.27;8.38;;;17.50;47.60;;;;;;5034620;28;20456;-74
2022/03/23 12:46:05;;;;;;;18.27;8.63;;;17.60;45.60;;;;;;5033532;28;20111;-74
2022/03/23 12:59:48;;;;;;;21.55;7.43;;;17.70;43.40;;;;;;5034357;28;20045;-74
2022/03/23 13:02:21;;;;;;;20.15;6.75;;;17.60;44.80;;;;;;5034021;28;20494;-74
2022/03/23 13:04:47;;;;;;;18.38;7.60;;;17.70;45.50;;;;;;5034181;28;20142;-74
2022/03/23 13:07:28;;;;;;;16.42;8.15;;;17.70;44.70;;;;;;5017393;28;20045;-74